createdAt,value
2017-05-12T00:00:30.517Z,17.21
2017-05-12T00:01:11.007Z,17.22
2017-05-12T00:01:51.501Z,17.22
2017-05-12T00:02:32.029Z,17.25
2017-05-12T00:03:12.588Z,17.23
2017-05-12T00:03:53.117Z,17.25
2017-05-12T00:04:33.647Z,17.18
2017-05-12T00:05:14.270Z,17.22
2017-05-12T00:05:54.814Z,17.26
2017-05-12T00:06:35.454Z,17.22
2017-05-12T00:07:15.758Z,17.08
2017-05-12T00:07:56.173Z,17.11
2017-05-12T00:08:36.757Z,17.14
2017-05-12T00:09:17.212Z,17.03
2017-05-12T00:09:57.746Z,17.01
2017-05-12T00:10:38.281Z,17.01
2017-05-12T00:11:18.751Z,17.07
2017-05-12T00:11:59.263Z,17.08
2017-05-12T00:12:39.733Z,17.14
2017-05-12T00:13:20.223Z,17.16
2017-05-12T00:14:00.688Z,17.22
2017-05-12T00:14:41.218Z,17.26
2017-05-12T00:15:21.808Z,17.28
2017-05-12T00:16:02.561Z,17.22
2017-05-12T00:16:43.152Z,17.34
2017-05-12T00:17:23.591Z,17.21
2017-05-12T00:18:04.144Z,17.21
2017-05-12T00:18:44.557Z,17.22
2017-05-12T00:19:25.089Z,17.23
2017-05-12T00:20:05.784Z,17.19
2017-05-12T00:20:46.269Z,17.11
2017-05-12T00:21:26.805Z,17.11
2017-05-12T00:22:07.270Z,17
2017-05-12T00:22:47.885Z,17.08
2017-05-12T00:23:28.302Z,17.14
2017-05-12T00:24:08.863Z,17.12
2017-05-12T00:24:49.320Z,17.11
2017-05-12T00:25:29.995Z,17.06
2017-05-12T00:26:10.407Z,16.98
2017-05-12T00:26:50.869Z,17.01
2017-05-12T00:27:31.369Z,16.93
2017-05-12T00:28:12.006Z,16.97
2017-05-12T00:28:52.500Z,17.04
2017-05-12T00:29:32.966Z,17.11
2017-05-12T00:30:13.428Z,17.12
2017-05-12T00:30:53.891Z,17.08
2017-05-12T00:31:34.399Z,17.06
2017-05-12T00:32:14.843Z,17.12
2017-05-12T00:32:55.387Z,17.16
2017-05-12T00:33:35.929Z,17.11
2017-05-12T00:34:16.371Z,17.11
2017-05-12T00:34:57.066Z,17.22
2017-05-12T00:35:37.559Z,17.26
2017-05-12T00:36:18.002Z,17.26
2017-05-12T00:36:58.526Z,17.23
2017-05-12T00:37:38.992Z,17.19
2017-05-12T00:38:19.444Z,17.08
2017-05-12T00:38:59.966Z,17.21
2017-05-12T00:39:40.429Z,17.12
2017-05-12T00:40:20.927Z,17.14
2017-05-12T00:41:01.452Z,17.14
2017-05-12T00:41:42.089Z,17.15
2017-05-12T00:42:22.626Z,17.06
2017-05-12T00:43:03.164Z,17.15
2017-05-12T00:43:43.666Z,17.07
2017-05-12T00:44:24.999Z,17.11
2017-05-12T00:46:16.913Z,17.12
2017-05-12T00:47:03.684Z,17.01
2017-05-12T00:47:46.823Z,17.03
2017-05-12T00:48:27.706Z,16.96
2017-05-12T00:49:08.354Z,16.98
2017-05-12T00:49:48.816Z,17.04
2017-05-12T00:50:29.460Z,17.14
2017-05-12T00:51:10.102Z,17.11
2017-05-12T00:51:50.643Z,17.15
2017-05-12T00:52:31.139Z,17.12
2017-05-12T00:53:11.643Z,17.12
2017-05-12T00:53:52.256Z,17.11
2017-05-12T00:55:22.841Z,17.01
2017-05-12T00:56:03.299Z,17.07
2017-05-12T00:56:43.926Z,17.06
2017-05-12T00:57:24.391Z,17.11
2017-05-12T00:58:04.899Z,17.16
2017-05-12T00:58:45.378Z,17.11
2017-05-12T00:59:26.004Z,17.12
2017-05-12T01:00:06.450Z,17.18
2017-05-12T01:00:46.946Z,17.21
2017-05-12T01:01:27.446Z,17.14
2017-05-12T01:02:07.953Z,17.19
2017-05-12T01:02:50.686Z,17.16
2017-05-12T01:03:51.429Z,17.03
2017-05-12T01:11:08.952Z,17.07
2017-05-12T01:12:01.511Z,17.03
2017-05-12T01:14:50.874Z,17.23
2017-05-12T01:17:14.059Z,17.21
2017-05-12T01:18:04.638Z,17.16
2017-05-12T01:18:53.477Z,17.22
2017-05-12T01:19:34.321Z,17.33
2017-05-12T01:21:25.481Z,17.37
2017-05-12T01:22:08.194Z,17.26
2017-05-12T01:22:48.660Z,17.43
2017-05-12T01:23:29.154Z,17.49
2017-05-12T01:24:09.645Z,17.46
2017-05-12T01:24:50.039Z,17.49
2017-05-12T01:25:30.514Z,17.52
2017-05-12T01:26:11.019Z,17.52
2017-05-12T01:26:51.495Z,17.56
2017-05-12T01:27:32.026Z,17.51
2017-05-12T01:28:12.502Z,17.55
2017-05-12T01:28:53.078Z,17.48
2017-05-12T01:29:33.489Z,17.49
2017-05-12T01:30:13.973Z,17.52
2017-05-12T01:30:54.424Z,17.55
2017-05-12T01:31:34.996Z,17.59
2017-05-12T01:32:15.472Z,17.63
2017-05-12T01:32:55.956Z,17.56
2017-05-12T01:33:36.417Z,17.62
2017-05-12T01:34:16.963Z,17.63
2017-05-12T01:34:57.458Z,17.72
2017-05-12T01:35:37.925Z,17.64
2017-05-12T01:36:18.376Z,17.63
2017-05-12T01:36:58.904Z,17.63
2017-05-12T01:37:39.508Z,17.68
2017-05-12T01:38:20.051Z,17.63
2017-05-12T01:39:00.497Z,17.63
2017-05-12T01:39:41.031Z,17.59
2017-05-12T01:40:21.474Z,17.64
2017-05-12T01:41:01.996Z,17.68
2017-05-12T01:41:42.500Z,17.59
2017-05-12T01:42:22.937Z,17.58
2017-05-12T01:43:03.525Z,17.64
2017-05-12T01:43:44.029Z,17.64
2017-05-12T01:44:24.506Z,17.71
2017-05-12T01:45:04.963Z,17.71
2017-05-12T01:45:45.506Z,17.74
2017-05-12T01:46:25.996Z,17.75
2017-05-12T01:47:06.471Z,17.68
2017-05-12T01:47:47.001Z,17.74
2017-05-12T01:48:27.488Z,17.63
2017-05-12T01:49:07.956Z,17.66
2017-05-12T01:49:48.449Z,17.72
2017-05-12T01:50:28.961Z,17.72
2017-05-12T01:51:09.631Z,17.71
2017-05-12T01:51:50.063Z,17.78
2017-05-12T01:52:30.560Z,17.7
2017-05-12T01:53:11.091Z,17.71
2017-05-12T01:53:51.530Z,17.72
2017-05-12T01:54:32.010Z,17.71
2017-05-12T01:55:12.512Z,17.71
2017-05-12T01:55:52.941Z,17.74
2017-05-12T01:56:33.486Z,17.74
2017-05-12T01:57:13.967Z,17.66
2017-05-12T01:57:54.431Z,17.66
2017-05-12T01:58:34.908Z,17.71
2017-05-12T01:59:15.382Z,17.64
2017-05-12T01:59:55.893Z,17.63
2017-05-12T02:00:36.455Z,17.66
2017-05-12T02:01:16.909Z,17.75
2017-05-12T02:01:57.368Z,17.77
2017-05-12T02:02:37.957Z,17.71
2017-05-12T02:03:18.418Z,17.71
2017-05-12T02:03:58.872Z,17.74
2017-05-12T02:04:39.358Z,17.7
2017-05-12T02:05:19.857Z,17.71
2017-05-12T02:06:00.357Z,17.77
2017-05-12T02:06:40.800Z,17.77
2017-05-12T02:07:21.332Z,17.84
2017-05-12T02:08:01.802Z,17.87
2017-05-12T02:08:42.270Z,17.79
2017-05-12T02:09:22.772Z,17.86
2017-05-12T02:10:03.292Z,17.92
2017-05-12T02:10:43.813Z,17.9
2017-05-12T02:11:24.337Z,17.86
2017-05-12T02:12:04.878Z,17.89
2017-05-12T02:12:45.344Z,17.89
2017-05-12T02:13:25.848Z,17.89
2017-05-12T02:14:06.342Z,17.84
2017-05-12T02:14:46.835Z,17.92
2017-05-12T02:15:28.296Z,17.87
2017-05-12T02:16:08.827Z,17.86
2017-05-12T02:16:49.340Z,17.9
2017-05-12T02:17:29.882Z,17.9
2017-05-12T02:18:10.352Z,17.92
2017-05-12T02:18:50.819Z,17.89
2017-05-12T02:19:31.290Z,17.92
2017-05-12T02:20:11.749Z,17.75
2017-05-12T02:20:52.301Z,17.75
2017-05-12T02:21:32.787Z,17.78
2017-05-12T02:22:13.256Z,17.9
2017-05-12T02:22:54.648Z,17.89
2017-05-12T02:23:35.127Z,17.71
2017-05-12T02:24:15.627Z,17.89
2017-05-12T02:24:56.159Z,17.87
2017-05-12T02:25:36.650Z,17.92
2017-05-12T02:26:17.062Z,17.84
2017-05-12T02:26:57.659Z,17.92
2017-05-12T02:27:38.153Z,17.77
2017-05-12T02:28:18.651Z,17.78
2017-05-12T02:28:59.210Z,17.75
2017-05-12T02:29:39.613Z,17.75
2017-05-12T02:30:20.057Z,17.7
2017-05-12T02:31:00.554Z,17.64
2017-05-12T02:31:41.000Z,17.66
2017-05-12T02:32:21.556Z,17.51
2017-05-12T02:33:01.999Z,17.58
2017-05-12T02:33:42.581Z,17.55
2017-05-12T02:34:23.107Z,17.62
2017-05-12T02:35:03.562Z,17.44
2017-05-12T02:35:44.017Z,17.46
2017-05-12T02:36:24.486Z,17.38
2017-05-12T02:37:05.055Z,17.51
2017-05-12T02:37:45.542Z,17.52
2017-05-12T02:38:26.016Z,17.38
2017-05-12T02:39:06.504Z,17.4
2017-05-12T02:39:47.022Z,17.38
2017-05-12T02:40:27.542Z,17.19
2017-05-12T02:41:07.994Z,17.06
2017-05-12T02:41:48.519Z,17.08
2017-05-12T02:42:29.023Z,17.19
2017-05-12T02:43:10.325Z,17.12
2017-05-12T02:43:49.989Z,17.07
2017-05-12T02:44:30.419Z,17.01
2017-05-12T02:45:10.966Z,17.01
2017-05-12T02:45:51.436Z,17.08
2017-05-12T02:46:32.028Z,17.11
2017-05-12T02:47:12.466Z,17.07
2017-05-12T02:47:52.989Z,17.14
2017-05-12T02:48:33.455Z,16.93
2017-05-12T02:49:13.906Z,16.96
2017-05-12T02:49:54.512Z,17.14
2017-05-12T02:50:35.003Z,17.15
2017-05-12T02:51:15.492Z,17.04
2017-05-12T02:51:55.949Z,17.16
2017-05-12T02:52:36.409Z,16.98
2017-05-12T02:53:16.872Z,16.98
2017-05-12T02:53:57.468Z,16.85
2017-05-12T02:54:37.974Z,16.94
2017-05-12T02:55:18.489Z,17.03
2017-05-12T02:55:58.905Z,17.12
2017-05-12T02:56:39.419Z,17.08
2017-05-12T02:57:19.906Z,17.16
2017-05-12T02:58:00.370Z,17.12
2017-05-12T02:58:40.936Z,17.06
2017-05-12T02:59:21.357Z,17.07
2017-05-12T03:00:01.863Z,17
2017-05-12T03:00:42.356Z,16.96
2017-05-12T03:01:22.948Z,16.89
2017-05-12T03:02:03.380Z,16.83
2017-05-12T03:02:43.946Z,16.94
2017-05-12T03:03:24.414Z,17.03
2017-05-12T03:04:04.939Z,16.98
2017-05-12T03:04:45.461Z,17
2017-05-12T03:05:25.887Z,16.96
2017-05-12T03:06:06.355Z,16.82
2017-05-12T03:06:46.890Z,16.89
2017-05-12T03:07:27.416Z,16.94
2017-05-12T03:08:07.868Z,17
2017-05-12T03:08:48.391Z,17.01
2017-05-12T03:09:28.938Z,17.08
2017-05-12T03:10:09.446Z,16.98
2017-05-12T03:10:50.227Z,17.11
2017-05-12T03:11:30.706Z,17.06
2017-05-12T03:12:11.174Z,17.06
2017-05-12T03:12:51.674Z,16.91
2017-05-12T03:13:32.182Z,16.85
2017-05-12T03:14:12.677Z,16.89
2017-05-12T03:14:53.219Z,16.89
2017-05-12T03:15:33.682Z,16.86
2017-05-12T03:16:14.156Z,16.91
2017-05-12T03:16:54.738Z,16.94
2017-05-12T03:17:35.224Z,16.94
2017-05-12T03:18:15.707Z,16.96
2017-05-12T03:18:56.190Z,16.96
2017-05-12T03:19:36.653Z,16.91
2017-05-12T03:20:17.241Z,16.89
2017-05-12T03:20:57.799Z,16.89
2017-05-12T03:21:38.362Z,16.79
2017-05-12T03:22:19.055Z,16.79
2017-05-12T03:22:59.527Z,16.83
2017-05-12T03:23:40.027Z,16.78
2017-05-12T03:24:20.458Z,16.76
2017-05-12T03:25:00.960Z,16.68
2017-05-12T03:25:41.361Z,16.76
2017-05-12T03:26:21.962Z,16.82
2017-05-12T03:27:02.456Z,16.76
2017-05-12T03:27:42.960Z,16.82
2017-05-12T03:28:23.495Z,16.88
2017-05-12T03:29:04.019Z,16.81
2017-05-12T03:29:44.627Z,16.75
2017-05-12T03:30:25.050Z,16.68
2017-05-12T03:31:05.511Z,16.58
2017-05-12T03:31:45.978Z,16.7
2017-05-12T03:32:26.490Z,16.7
2017-05-12T03:33:07.003Z,16.71
2017-05-12T03:33:47.454Z,16.76
2017-05-12T03:34:27.980Z,16.83
2017-05-12T03:35:08.494Z,16.7
2017-05-12T03:35:49.011Z,16.82
2017-05-12T03:36:29.471Z,16.89
2017-05-12T03:37:09.966Z,16.86
2017-05-12T03:37:50.489Z,16.94
2017-05-12T03:38:30.981Z,16.98
2017-05-12T03:39:11.466Z,16.88
2017-05-12T03:39:51.921Z,16.94
2017-05-12T03:40:32.540Z,16.81
2017-05-12T03:41:12.996Z,16.81
2017-05-12T03:41:53.443Z,16.82
2017-05-12T03:42:33.896Z,16.78
2017-05-12T03:43:14.487Z,16.73
2017-05-12T03:43:54.927Z,16.73
2017-05-12T03:44:35.354Z,16.7
2017-05-12T03:45:15.900Z,16.68
2017-05-12T03:45:56.402Z,16.67
2017-05-12T03:46:36.803Z,16.76
2017-05-12T03:47:17.331Z,16.71
2017-05-12T03:47:57.866Z,16.88
2017-05-12T03:48:38.366Z,16.86
2017-05-12T03:49:18.857Z,16.78
2017-05-12T03:49:59.346Z,16.73
2017-05-12T03:50:39.844Z,16.7
2017-05-12T03:51:20.463Z,16.63
2017-05-12T03:52:00.851Z,16.58
2017-05-12T03:52:41.341Z,16.49
2017-05-12T03:53:21.753Z,16.64
2017-05-12T03:54:02.254Z,16.79
2017-05-12T03:54:42.832Z,16.7
2017-05-12T03:55:23.241Z,16.82
2017-05-12T03:56:03.923Z,16.81
2017-05-12T03:56:44.412Z,16.68
2017-05-12T03:57:24.830Z,16.7
2017-05-12T03:58:05.349Z,16.61
2017-05-12T03:58:45.970Z,16.68
2017-05-12T03:59:26.593Z,16.63
2017-05-12T04:00:07.071Z,16.63
2017-05-12T04:00:47.613Z,16.56
2017-05-12T04:01:28.206Z,16.53
2017-05-12T04:02:08.783Z,16.57
2017-05-12T04:02:49.246Z,16.68
2017-05-12T04:03:29.842Z,16.63
2017-05-12T04:04:10.315Z,16.71
2017-05-12T04:04:50.811Z,16.58
2017-05-12T04:05:31.226Z,16.71
2017-05-12T04:06:11.763Z,16.73
2017-05-12T04:08:25.528Z,16.63
2017-05-12T04:09:11.092Z,16.46
2017-05-12T04:09:51.435Z,16.52
2017-05-12T04:10:31.918Z,16.56
2017-05-12T04:11:12.421Z,16.52
2017-05-12T04:11:52.920Z,16.52
2017-05-12T04:12:33.349Z,16.49
2017-05-12T04:13:13.946Z,16.43
2017-05-12T04:13:54.423Z,16.5
2017-05-12T04:14:34.948Z,16.46
2017-05-12T04:15:15.703Z,16.41
2017-05-12T04:15:56.342Z,16.43
2017-05-12T04:16:36.783Z,16.42
2017-05-12T04:17:17.390Z,16.43
2017-05-12T04:17:57.855Z,16.45
2017-05-12T04:18:38.353Z,16.39
2017-05-12T04:19:18.792Z,16.42
2017-05-12T04:19:59.472Z,16.42
2017-05-12T04:20:39.970Z,16.38
2017-05-12T04:21:20.432Z,16.46
2017-05-12T04:22:00.978Z,16.39
2017-05-12T04:22:41.534Z,16.48
2017-05-12T04:23:21.945Z,16.41
2017-05-12T04:24:02.406Z,16.49
2017-05-12T04:24:43.047Z,16.42
2017-05-12T04:25:23.499Z,16.57
2017-05-12T04:26:03.953Z,16.57
2017-05-12T04:26:44.461Z,16.52
2017-05-12T04:27:24.956Z,16.56
2017-05-12T04:28:05.426Z,16.6
2017-05-12T04:28:45.903Z,16.6
2017-05-12T04:29:26.552Z,16.58
2017-05-12T04:30:07.181Z,16.56
2017-05-12T04:30:47.636Z,16.66
2017-05-12T04:31:28.161Z,16.71
2017-05-12T04:32:08.634Z,16.71
2017-05-12T04:35:31.380Z,16.71
2017-05-12T04:36:13.567Z,16.78
2017-05-12T04:36:54.026Z,16.76
2017-05-12T04:37:34.468Z,16.82
2017-05-12T04:38:14.951Z,16.76
2017-05-12T04:38:55.471Z,16.73
2017-05-12T04:39:35.947Z,16.76
2017-05-12T04:40:16.429Z,16.82
2017-05-12T04:40:56.923Z,16.81
2017-05-12T04:41:38.558Z,16.75
2017-05-12T04:42:28.999Z,16.71
2017-05-12T04:44:30.481Z,16.7
2017-05-12T04:46:28.440Z,16.78
2017-05-12T04:47:09.047Z,16.71
2017-05-12T04:47:49.596Z,16.82
2017-05-12T04:48:30.172Z,16.88
2017-05-12T04:49:10.650Z,16.93
2017-05-12T04:49:51.122Z,16.83
2017-05-12T04:50:31.644Z,16.82
2017-05-12T04:51:12.181Z,16.79
2017-05-12T04:51:52.672Z,16.82
2017-05-12T04:52:33.220Z,16.81
2017-05-12T04:53:13.725Z,16.82
2017-05-12T04:53:54.732Z,16.68
2017-05-12T04:54:35.210Z,16.79
2017-05-12T04:55:15.654Z,16.81
2017-05-12T04:55:57.136Z,16.79
2017-05-12T05:00:20.963Z,16.79
2017-05-12T05:01:04.290Z,16.79
2017-05-12T05:01:44.515Z,16.71
2017-05-12T05:02:24.992Z,16.82
2017-05-12T05:03:05.940Z,16.68
2017-05-12T05:06:21.912Z,16.78
2017-05-12T05:07:04.341Z,16.81
2017-05-12T05:07:44.838Z,16.81
2017-05-12T05:08:25.357Z,16.88
2017-05-12T05:09:05.824Z,16.86
2017-05-12T05:09:46.365Z,16.89
2017-05-12T05:10:26.820Z,16.82
2017-05-12T05:11:07.294Z,16.78
2017-05-12T05:11:47.915Z,16.82
2017-05-12T05:12:28.349Z,16.73
2017-05-12T05:13:08.817Z,16.76
2017-05-12T05:13:51.149Z,16.78
2017-05-12T05:14:32.426Z,16.68
2017-05-12T05:15:12.924Z,16.79
2017-05-12T05:15:53.449Z,16.79
2017-05-12T05:16:33.893Z,16.85
2017-05-12T05:17:14.441Z,16.94
2017-05-12T05:17:54.878Z,16.98
2017-05-12T05:18:35.521Z,16.83
2017-05-12T05:19:16.039Z,16.83
2017-05-12T05:19:56.538Z,16.93
2017-05-12T05:20:37.001Z,16.88
2017-05-12T05:21:17.504Z,16.89
2017-05-12T05:21:57.975Z,16.96
2017-05-12T05:22:38.588Z,16.96
2017-05-12T05:23:19.011Z,17.14
2017-05-12T05:23:59.469Z,17.08
2017-05-12T05:24:39.975Z,17.08
2017-05-12T05:25:20.646Z,17.11
2017-05-12T05:26:01.050Z,17.23
2017-05-12T05:26:41.525Z,17.22
2017-05-12T05:27:22.038Z,17.22
2017-05-12T05:28:02.576Z,17.23
2017-05-12T05:28:43.072Z,17.4
2017-05-12T05:29:23.604Z,17.43
2017-05-12T05:30:04.126Z,17.46
2017-05-12T05:30:44.664Z,17.56
2017-05-12T05:31:25.072Z,17.52
2017-05-12T05:32:05.610Z,17.58
2017-05-12T05:32:46.213Z,17.52
2017-05-12T05:33:26.776Z,17.52
2017-05-12T05:34:07.452Z,17.52
2017-05-12T05:34:47.934Z,17.54
2017-05-12T05:35:28.659Z,17.63
2017-05-12T05:36:09.198Z,17.66
2017-05-12T05:36:49.716Z,17.72
2017-05-12T05:37:30.200Z,17.71
2017-05-12T05:38:10.745Z,17.62
2017-05-12T05:38:51.214Z,17.63
2017-05-12T05:39:32.289Z,17.63
2017-05-12T05:40:12.922Z,17.56
2017-05-12T05:40:53.550Z,17.46
2017-05-12T05:41:34.151Z,17.48
2017-05-12T05:42:18.587Z,17.41
2017-05-12T05:42:59.316Z,17.43
2017-05-12T05:43:39.829Z,17.43
2017-05-12T05:44:20.804Z,17.36
2017-05-12T05:45:02.296Z,17.4
2017-05-12T05:45:43.241Z,17.41
2017-05-12T05:46:23.723Z,17.51
2017-05-12T05:47:04.382Z,17.52
2017-05-12T05:47:44.981Z,17.56
2017-05-12T05:48:25.636Z,17.62
2017-05-12T05:49:06.469Z,17.62
2017-05-12T05:49:47.209Z,17.74
2017-05-12T05:50:27.505Z,17.81
2017-05-12T05:51:07.962Z,17.74
2017-05-12T05:51:48.413Z,17.72
2017-05-12T05:52:28.971Z,17.75
2017-05-12T05:53:09.509Z,17.77
2017-05-12T05:56:32.540Z,17.97
2017-05-12T05:57:18.006Z,17.97
2017-05-12T05:57:59.632Z,18.03
2017-05-12T05:58:40.201Z,18.1
2017-05-12T05:59:20.662Z,18.1
2017-05-12T06:00:01.121Z,18.14
2017-05-12T06:00:41.782Z,18.2
2017-05-12T06:01:22.314Z,18.21
2017-05-12T06:02:02.800Z,18.25
2017-05-12T06:02:43.352Z,18.25
2017-05-12T06:03:24.051Z,18.3
2017-05-12T06:04:04.537Z,18.29
2017-05-12T06:04:45.013Z,18.35
2017-05-12T06:05:25.690Z,18.37
2017-05-12T06:06:06.354Z,18.51
2017-05-12T06:06:47.182Z,18.57
2017-05-12T06:07:27.757Z,18.63
2017-05-12T06:09:20.219Z,18.82
2017-05-12T06:10:08.337Z,19
2017-05-12T06:10:50.057Z,19.07
2017-05-12T06:11:30.573Z,19.18
2017-05-12T06:12:11.098Z,19.21
2017-05-12T06:12:51.718Z,19.28
2017-05-12T06:13:32.273Z,19.18
2017-05-12T06:14:12.689Z,19.21
2017-05-12T06:14:53.234Z,19.25
2017-05-12T06:15:33.659Z,19.23
2017-05-12T06:16:14.361Z,19.22
2017-05-12T06:16:54.870Z,19.25
2017-05-12T06:17:35.331Z,19.25
2017-05-12T06:18:15.886Z,19.22
2017-05-12T06:18:56.458Z,19.28
2017-05-12T06:19:36.859Z,19.22
2017-05-12T06:20:17.369Z,19.29
2017-05-12T06:20:57.885Z,19.21
2017-05-12T06:21:38.587Z,19.32
2017-05-12T06:22:19.142Z,19.39
2017-05-12T06:23:41.660Z,19.56
2017-05-12T06:24:22.454Z,19.65
2017-05-12T06:25:02.996Z,19.71
2017-05-12T06:25:44.001Z,19.95
2017-05-12T06:26:24.545Z,20.06
2017-05-12T06:27:05.367Z,20.1
2017-05-12T06:27:46.067Z,20.1
2017-05-12T06:28:26.705Z,20.33
2017-05-12T06:29:08.848Z,20.42
2017-05-12T06:29:49.351Z,20.47
2017-05-12T06:30:29.813Z,20.48
2017-05-12T06:31:10.317Z,20.38
2017-05-12T06:31:50.784Z,20.38
2017-05-12T06:32:31.386Z,20.5
2017-05-12T06:33:11.871Z,20.61
2017-05-12T06:33:52.747Z,20.61
2017-05-12T06:34:33.177Z,20.69
2017-05-12T06:35:13.837Z,20.77
2017-05-12T06:35:54.309Z,20.97
2017-05-12T06:36:35.007Z,20.82
2017-05-12T06:37:15.464Z,20.95
2017-05-12T06:37:56.468Z,21.07
2017-05-12T06:38:36.666Z,21.1
2017-05-12T06:39:19.036Z,20.95
2017-05-12T06:40:03.549Z,20.94
2017-05-12T06:40:44.317Z,20.87
2017-05-12T06:41:24.615Z,20.79
2017-05-12T06:42:05.420Z,20.73
2017-05-12T06:42:45.969Z,20.54
2017-05-12T06:43:26.443Z,20.55
2017-05-12T06:44:06.952Z,20.35
2017-05-12T06:44:47.419Z,20.24
2017-05-12T06:45:28.167Z,20.13
2017-05-12T06:46:08.589Z,20.11
2017-05-12T06:46:49.091Z,20.16
2017-05-12T06:47:29.694Z,20.11
2017-05-12T06:48:10.218Z,20.11
2017-05-12T06:48:50.978Z,20.08
2017-05-12T06:49:33.875Z,20.08
2017-05-12T06:50:12.745Z,20.2
2017-05-12T06:50:53.218Z,20.28
2017-05-12T06:51:33.908Z,20.18
2017-05-12T06:52:14.370Z,20.38
2017-05-12T06:52:55.135Z,20.47
2017-05-12T06:53:35.439Z,20.31
2017-05-12T06:54:18.429Z,20.17
2017-05-12T06:55:00.483Z,20.28
2017-05-12T06:55:41.902Z,20.23
2017-05-12T06:56:22.434Z,20.21
2017-05-12T06:57:03.016Z,20.32
2017-05-12T06:57:43.768Z,20.32
2017-05-12T06:58:24.665Z,20.14
2017-05-12T06:59:05.049Z,20.2
2017-05-12T06:59:45.499Z,20.16
2017-05-12T07:00:26.078Z,20.16
2017-05-12T07:01:06.763Z,19.96
2017-05-12T07:01:47.272Z,20.1
2017-05-12T07:02:28.077Z,20.06
2017-05-12T07:03:08.355Z,20.11
2017-05-12T07:03:49.066Z,19.94
2017-05-12T07:04:29.861Z,19.95
2017-05-12T07:05:10.740Z,20.16
2017-05-12T07:05:50.961Z,20.23
2017-05-12T07:06:32.392Z,20.38
2017-05-12T07:07:12.711Z,20.58
2017-05-12T07:07:53.430Z,20.73
2017-05-12T07:08:33.734Z,21.01
2017-05-12T07:09:14.312Z,21.14
2017-05-12T07:09:54.902Z,21.28
2017-05-12T07:10:37.256Z,21.46
2017-05-12T07:11:20.711Z,21.71
2017-05-12T07:12:01.438Z,21.68
2017-05-12T07:12:43.221Z,21.47
2017-05-12T07:13:24.174Z,21.46
2017-05-12T07:14:04.551Z,21.22
2017-05-12T07:14:45.141Z,21.22
2017-05-12T07:15:25.807Z,21.12
2017-05-12T07:16:06.180Z,20.99
2017-05-12T07:16:46.721Z,20.98
2017-05-12T07:17:27.319Z,21.01
2017-05-12T07:18:08.031Z,21.1
2017-05-12T07:18:48.341Z,21.07
2017-05-12T07:19:28.931Z,20.95
2017-05-12T07:20:09.446Z,21.14
2017-05-12T07:20:50.560Z,21.28
2017-05-12T07:21:30.831Z,21.16
2017-05-12T07:22:11.368Z,21.25
2017-05-12T07:22:51.849Z,21.25
2017-05-12T07:23:32.447Z,21.28
2017-05-12T07:24:12.888Z,21.31
2017-05-12T07:24:53.572Z,21.31
2017-05-12T07:25:34.080Z,21.28
2017-05-12T07:26:14.566Z,21.27
2017-05-12T07:26:54.988Z,21.16
2017-05-12T07:27:35.617Z,21.34
2017-05-12T07:28:16.263Z,21.25
2017-05-12T07:29:54.437Z,21.12
2017-05-12T07:30:35.903Z,21.06
2017-05-12T07:31:16.447Z,20.95
2017-05-12T07:31:56.904Z,20.87
2017-05-12T07:32:37.402Z,20.92
2017-05-12T07:33:17.855Z,21.07
2017-05-12T07:33:58.411Z,21.14
2017-05-12T07:34:38.943Z,21.12
2017-05-12T07:35:19.459Z,21.35
2017-05-12T07:35:59.894Z,21.37
2017-05-12T07:36:40.327Z,21.47
2017-05-12T07:37:20.886Z,21.38
2017-05-12T07:38:01.345Z,21.46
2017-05-12T07:38:41.831Z,21.52
2017-05-12T07:39:22.352Z,21.64
2017-05-12T07:40:02.865Z,21.74
2017-05-12T07:43:49.156Z,21.8
2017-05-12T07:44:29.756Z,21.69
2017-05-12T07:45:10.364Z,21.62
2017-05-12T07:45:50.931Z,21.64
2017-05-12T07:46:31.326Z,21.5
2017-05-12T07:47:11.888Z,21.59
2017-05-12T07:47:52.458Z,21.29
2017-05-12T07:48:32.995Z,21.29
2017-05-12T07:49:13.658Z,21.24
2017-05-12T07:49:54.029Z,21.46
2017-05-12T07:50:34.520Z,21.27
2017-05-12T07:51:15.024Z,21.43
2017-05-12T07:51:55.631Z,21.62
2017-05-12T07:52:36.127Z,21.61
2017-05-12T07:53:16.588Z,21.47
2017-05-12T07:53:57.123Z,21.64
2017-05-12T07:54:37.651Z,21.71
2017-05-12T07:55:18.195Z,21.64
2017-05-12T07:55:58.640Z,21.61
2017-05-12T07:56:39.166Z,21.77
2017-05-12T07:57:19.682Z,21.72
2017-05-12T07:58:00.403Z,21.62
2017-05-12T07:58:40.890Z,21.59
2017-05-12T07:59:21.403Z,21.43
2017-05-12T08:00:01.876Z,21.46
2017-05-12T08:00:42.400Z,21.43
2017-05-12T08:01:22.836Z,21.31
2017-05-12T08:02:03.368Z,21.31
2017-05-12T08:02:43.825Z,21.28
2017-05-12T08:03:24.314Z,21.28
2017-05-12T08:04:04.810Z,21.29
2017-05-12T08:04:45.348Z,21.25
2017-05-12T08:05:25.843Z,21.22
2017-05-12T08:06:06.301Z,21.1
2017-05-12T08:06:46.882Z,21.12
2017-05-12T08:07:27.306Z,21.21
2017-05-12T08:08:07.901Z,21.19
2017-05-12T08:08:48.388Z,21.14
2017-05-12T08:09:28.920Z,21.13
2017-05-12T08:10:09.367Z,21.22
2017-05-12T08:10:50.867Z,21.34
2017-05-12T08:11:31.565Z,21.34
2017-05-12T08:12:12.077Z,21.5
2017-05-12T08:12:52.603Z,21.52
2017-05-12T08:13:33.089Z,21.47
2017-05-12T08:14:13.932Z,21.5
2017-05-12T08:14:54.527Z,21.54
2017-05-12T08:15:34.919Z,21.54
2017-05-12T08:16:15.461Z,21.64
2017-05-12T08:16:55.898Z,21.65
2017-05-12T08:17:36.556Z,21.64
2017-05-12T08:18:16.874Z,21.5
2017-05-12T08:18:57.385Z,21.52
2017-05-12T08:19:37.910Z,21.5
2017-05-12T08:20:18.414Z,21.59
2017-05-12T08:20:59.085Z,21.68
2017-05-12T08:21:39.635Z,21.68
2017-05-12T08:22:20.252Z,21.61
2017-05-12T08:23:00.772Z,21.71
2017-05-12T08:23:41.475Z,21.77
2017-05-12T08:24:22.000Z,21.69
2017-05-12T08:25:02.422Z,21.65
2017-05-12T08:25:43.085Z,21.79
2017-05-12T08:26:23.419Z,21.71
2017-05-12T08:27:03.981Z,21.72
2017-05-12T08:27:44.474Z,21.79
2017-05-12T08:28:24.949Z,21.83
2017-05-12T08:29:05.630Z,21.94
2017-05-12T08:29:46.144Z,21.96
2017-05-12T08:30:26.644Z,22.06
2017-05-12T08:31:07.131Z,22.06
2017-05-12T08:31:47.581Z,22.05
2017-05-12T08:32:28.092Z,21.9
2017-05-12T08:33:08.645Z,21.99
2017-05-12T08:35:23.939Z,22.09
2017-05-12T08:36:04.083Z,22.15
2017-05-12T08:36:44.618Z,22.2
2017-05-12T08:37:25.163Z,22.33
2017-05-12T08:38:05.691Z,22.43
2017-05-12T08:38:46.158Z,22.54
2017-05-12T08:39:26.647Z,22.57
2017-05-12T08:40:07.285Z,22.68
2017-05-12T08:40:47.706Z,22.85
2017-05-12T08:41:28.228Z,22.77
2017-05-12T08:42:08.671Z,22.91
2017-05-12T08:42:49.153Z,22.97
2017-05-12T08:43:29.718Z,23.15
2017-05-12T08:44:10.314Z,23.13
2017-05-12T08:44:50.777Z,23.17
2017-05-12T08:45:31.282Z,23.12
2017-05-12T08:46:11.733Z,23.23
2017-05-12T08:46:52.187Z,23.27
2017-05-12T08:47:32.725Z,23.35
2017-05-12T08:48:13.231Z,23.33
2017-05-12T08:48:53.728Z,23.46
2017-05-12T08:49:34.231Z,23.47
2017-05-12T08:50:14.722Z,23.42
2017-05-12T08:50:55.179Z,23.48
2017-05-12T08:52:44.162Z,23.73
2017-05-12T08:53:24.053Z,23.55
2017-05-12T08:54:04.602Z,23.72
2017-05-12T08:54:45.145Z,23.79
2017-05-12T08:55:25.646Z,23.79
2017-05-12T08:56:06.071Z,23.83
2017-05-12T08:56:46.570Z,23.9
2017-05-12T08:57:27.270Z,23.95
2017-05-12T08:58:07.754Z,23.98
2017-05-12T08:58:48.211Z,24.05
2017-05-12T08:59:28.883Z,24.02
2017-05-12T09:00:09.368Z,23.97
2017-05-12T09:00:49.866Z,24.08
2017-05-12T09:01:30.377Z,24.13
2017-05-12T09:02:10.913Z,24.18
2017-05-12T09:02:51.379Z,24.12
2017-05-12T09:03:31.871Z,24.16
2017-05-12T09:04:12.379Z,24.12
2017-05-12T09:04:52.875Z,24.09
2017-05-12T09:05:33.395Z,24
2017-05-12T09:06:13.888Z,23.84
2017-05-12T09:06:54.461Z,23.61
2017-05-12T09:07:34.903Z,23.5
2017-05-12T09:08:15.373Z,23.39
2017-05-12T09:08:55.849Z,23.42
2017-05-12T09:09:36.502Z,23.35
2017-05-12T09:10:16.829Z,23.2
2017-05-12T09:10:57.673Z,23.35
2017-05-12T09:11:38.132Z,23.32
2017-05-12T09:12:18.581Z,23.32
2017-05-12T09:12:59.120Z,23.17
2017-05-12T09:13:39.604Z,23.2
2017-05-12T09:14:20.093Z,22.97
2017-05-12T09:15:00.625Z,22.94
2017-05-12T09:15:41.102Z,22.97
2017-05-12T09:16:21.689Z,22.88
2017-05-12T09:17:02.228Z,22.97
2017-05-12T09:17:42.707Z,22.98
2017-05-12T09:18:23.283Z,23
2017-05-12T09:19:03.738Z,22.97
2017-05-12T09:19:44.273Z,22.86
2017-05-12T09:20:25.009Z,22.85
2017-05-12T09:21:05.912Z,22.72
2017-05-12T09:21:46.774Z,22.67
2017-05-12T09:22:27.477Z,22.64
2017-05-12T09:23:08.463Z,22.61
2017-05-12T09:23:49.092Z,22.51